sensor_id;sensor_type;location;lat;lon;timestamp;pressure;altitude;pressure_sealevel;temperature;humidity
85266;BME280;75676;49.522;19.724;2024-03-23T00:53:57;93385.75;;;6.94;66.67
85266;BME280;75676;49.522;19.724;2024-03-23T00:56:23;93385.63;;;6.98;65.37
85266;BME280;75676;49.522;19.724;2024-03-23T00:58:49;93381.97;;;6.95;67.06
85266;BME280;75676;49.522;19.724;2024-03-23T01:01:15;93381.00;;;6.89;67.88
85266;BME280;75676;49.522;19.724;2024-03-23T01:03:42;93384.59;;;6.83;70.33
85266;BME280;75676;49.522;19.724;2024-03-23T01:06:08;93382.81;;;6.67;68.54
85266;BME280;75676;49.522;19.724;2024-03-23T01:08:34;93371.91;;;6.68;68.45
85266;BME280;75676;49.522;19.724;2024-03-23T01:11:00;93372.44;;;6.63;68.35
85266;BME280;75676;49.522;19.724;2024-03-23T01:13:27;93364.56;;;6.63;68.63
85266;BME280;75676;49.522;19.724;2024-03-23T01:15:54;93364.13;;;6.65;68.74
85266;BME280;75676;49.522;19.724;2024-03-23T01:18:21;93360.78;;;6.52;69.52
85266;BME280;75676;49.522;19.724;2024-03-23T01:20:47;93354.16;;;6.47;70.35
85266;BME280;75676;49.522;19.724;2024-03-23T01:23:14;93355.53;;;6.39;71.62
85266;BME280;75676;49.522;19.724;2024-03-23T01:25:40;93357.09;;;6.37;71.16
85266;BME280;75676;49.522;19.724;2024-03-23T01:28:07;93345.00;;;6.26;72.13
85266;BME280;75676;49.522;19.724;2024-03-23T01:30:34;93344.94;;;6.30;71.00
85266;BME280;75676;49.522;19.724;2024-03-23T01:33:00;93354.81;;;6.26;72.01
85266;BME280;75676;49.522;19.724;2024-03-23T01:35:26;93341.69;;;6.26;71.39
85266;BME280;75676;49.522;19.724;2024-03-23T01:37:52;93332.41;;;6.21;72.61
85266;BME280;75676;49.522;19.724;2024-03-23T01:40:18;93334.50;;;6.01;73.54
85266;BME280;75676;49.522;19.724;2024-03-23T01:45:23;93336.91;;;5.96;75.31
85266;BME280;75676;49.522;19.724;2024-03-23T01:47:51;93338.91;;;5.92;74.12
85266;BME280;75676;49.522;19.724;2024-03-23T01:50:19;93331.78;;;5.92;74.42
85266;BME280;75676;49.522;19.724;2024-03-23T01:52:46;93326.84;;;5.94;73.36
85266;BME280;75676;49.522;19.724;2024-03-23T01:55:13;93325.28;;;5.97;74.00
85266;BME280;75676;49.522;19.724;2024-03-23T01:57:39;93332.41;;;5.96;74.49
85266;BME280;75676;49.522;19.724;2024-03-23T02:00:05;93321.59;;;6.07;74.91
85266;BME280;75676;49.522;19.724;2024-03-23T02:02:32;93317.94;;;6.04;75.40
85266;BME280;75676;49.522;19.724;2024-03-23T02:04:57;93307.66;;;5.97;74.60
85266;BME280;75676;49.522;19.724;2024-03-23T02:07:24;93312.34;;;5.89;73.72
85266;BME280;75676;49.522;19.724;2024-03-23T02:09:53;93304.09;;;6.04;72.35
85266;BME280;75676;49.522;19.724;2024-03-23T02:20:11;93290.66;;;6.14;71.20
85266;BME280;75676;49.522;19.724;2024-03-23T02:23:05;93289.38;;;6.19;70.57
85266;BME280;75676;49.522;19.724;2024-03-23T02:26:26;93292.50;;;6.26;70.64
85266;BME280;75676;49.522;19.724;2024-03-23T02:29:14;93291.69;;;6.29;69.90
85266;BME280;75676;49.522;19.724;2024-03-23T02:45:43;93273.00;;;6.27;71.86
85266;BME280;75676;49.522;19.724;2024-03-23T02:48:09;93260.19;;;6.29;71.93
85266;BME280;75676;49.522;19.724;2024-03-23T02:50:35;93257.91;;;6.19;72.50
85266;BME280;75676;49.522;19.724;2024-03-23T02:53:01;93269.44;;;6.21;72.52
85266;BME280;75676;49.522;19.724;2024-03-23T02:55:27;93261.03;;;6.26;72.59
85266;BME280;75676;49.522;19.724;2024-03-23T02:57:53;93257.69;;;6.26;72.00
85266;BME280;75676;49.522;19.724;2024-03-23T03:00:19;93257.25;;;6.27;72.26
85266;BME280;75676;49.522;19.724;2024-03-23T03:02:45;93256.72;;;6.32;71.46
85266;BME280;75676;49.522;19.724;2024-03-23T03:05:11;93250.22;;;6.24;72.02
85266;BME280;75676;49.522;19.724;2024-03-23T03:07:38;93247.28;;;6.22;72.23
85266;BME280;75676;49.522;19.724;2024-03-23T03:10:06;93239.72;;;6.24;72.37
85266;BME280;75676;49.522;19.724;2024-03-23T03:12:34;93236.06;;;6.09;74.04
85266;BME280;75676;49.522;19.724;2024-03-23T03:15:00;93230.47;;;6.32;71.40
85266;BME280;75676;49.522;19.724;2024-03-23T03:17:25;93232.00;;;6.43;69.89
85266;BME280;75676;49.522;19.724;2024-03-23T03:19:52;93231.66;;;6.53;69.50
85266;BME280;75676;49.522;19.724;2024-03-23T03:22:22;93236.69;;;6.60;69.60
85266;BME280;75676;49.522;19.724;2024-03-23T03:24:48;93232.78;;;6.65;69.67
85266;BME280;75676;49.522;19.724;2024-03-23T03:27:15;93232.69;;;6.68;69.14
85266;BME280;75676;49.522;19.724;2024-03-23T03:29:41;93230.50;;;6.67;68.76
85266;BME280;75676;49.522;19.724;2024-03-23T03:32:07;93227.63;;;6.74;68.88
85266;BME280;75676;49.522;19.724;2024-03-23T03:34:33;93223.59;;;6.82;68.60
85266;BME280;75676;49.522;19.724;2024-03-23T03:36:59;93221.03;;;6.91;68.87
85266;BME280;75676;49.522;19.724;2024-03-23T03:39:25;93218.66;;;6.84;71.07
85266;BME280;75676;49.522;19.724;2024-03-23T03:41:51;93225.94;;;6.80;70.81
85266;BME280;75676;49.522;19.724;2024-03-23T03:44:17;93215.72;;;6.82;70.71
85266;BME280;75676;49.522;19.724;2024-03-23T03:46:43;93213.63;;;6.77;72.40
85266;BME280;75676;49.522;19.724;2024-03-23T03:49:09;93205.38;;;6.66;70.57
85266;BME280;75676;49.522;19.724;2024-03-23T03:51:35;93199.91;;;6.73;70.42
85266;BME280;75676;49.522;19.724;2024-03-23T03:54:00;93201.63;;;6.89;69.19
85266;BME280;75676;49.522;19.724;2024-03-23T03:56:27;93200.00;;;6.91;69.50
85266;BME280;75676;49.522;19.724;2024-03-23T03:58:53;93194.91;;;6.88;69.86
85266;BME280;75676;49.522;19.724;2024-03-23T04:01:19;93194.25;;;6.96;69.27
85266;BME280;75676;49.522;19.724;2024-03-23T04:03:45;93187.69;;;7.01;69.29
85266;BME280;75676;49.522;19.724;2024-03-23T04:06:12;93188.97;;;6.96;69.58
85266;BME280;75676;49.522;19.724;2024-03-23T04:08:43;93189.81;;;6.93;70.02
85266;BME280;75676;49.522;19.724;2024-03-23T04:11:09;93188.63;;;7.07;69.35
85266;BME280;75676;49.522;19.724;2024-03-23T04:13:36;93193.34;;;7.21;69.11
85266;BME280;75676;49.522;19.724;2024-03-23T04:16:02;93197.00;;;7.24;69.07
85266;BME280;75676;49.522;19.724;2024-03-23T04:18:28;93197.63;;;7.28;68.64
85266;BME280;75676;49.522;19.724;2024-03-23T04:20:54;93186.81;;;7.26;68.49
85266;BME280;75676;49.522;19.724;2024-03-23T04:23:20;93189.13;;;7.24;68.72
85266;BME280;75676;49.522;19.724;2024-03-23T04:25:46;93190.34;;;7.32;68.24
85266;BME280;75676;49.522;19.724;2024-03-23T04:28:12;93186.38;;;7.27;68.74
85266;BME280;75676;49.522;19.724;2024-03-23T04:30:38;93191.69;;;7.36;68.44
85266;BME280;75676;49.522;19.724;2024-03-23T04:33:04;93189.78;;;7.37;67.83
85266;BME280;75676;49.522;19.724;2024-03-23T04:35:30;93184.66;;;7.33;68.34
85266;BME280;75676;49.522;19.724;2024-03-23T04:37:56;93173.25;;;7.27;68.74
85266;BME280;75676;49.522;19.724;2024-03-23T04:40:25;93165.78;;;7.26;68.73
85266;BME280;75676;49.522;19.724;2024-03-23T04:42:50;93162.91;;;7.33;68.11
85266;BME280;75676;49.522;19.724;2024-03-23T04:45:16;93162.34;;;7.38;67.60
85266;BME280;75676;49.522;19.724;2024-03-23T04:47:43;93157.81;;;7.38;67.60
85266;BME280;75676;49.522;19.724;2024-03-23T04:50:10;93162.34;;;7.38;68.07
85266;BME280;75676;49.522;19.724;2024-03-23T04:52:36;93165.69;;;7.38;68.38
85266;BME280;75676;49.522;19.724;2024-03-23T04:55:02;93155.78;;;7.42;68.70
85266;BME280;75676;49.522;19.724;2024-03-23T04:57:29;93158.84;;;7.41;69.45
85266;BME280;75676;49.522;19.724;2024-03-23T04:59:55;93156.66;;;7.39;68.59
85266;BME280;75676;49.522;19.724;2024-03-23T05:02:21;93154.13;;;7.36;69.46
85266;BME280;75676;49.522;19.724;2024-03-23T05:04:47;93151.25;;;7.43;69.60
85266;BME280;75676;49.522;19.724;2024-03-23T05:07:12;93152.38;;;7.33;70.80
85266;BME280;75676;49.522;19.724;2024-03-23T05:09:38;93156.97;;;7.20;73.07
85266;BME280;75676;49.522;19.724;2024-03-23T05:12:05;93146.19;;;7.18;72.49
85266;BME280;75676;49.522;19.724;2024-03-23T05:14:31;93141.38;;;7.25;71.04
85266;BME280;75676;49.522;19.724;2024-03-23T05:16:56;93147.34;;;7.16;72.26
85266;BME280;75676;49.522;19.724;2024-03-23T05:19:22;93149.22;;;7.16;72.70
85266;BME280;75676;49.522;19.724;2024-03-23T05:21:49;93145.38;;;7.08;72.86
85266;BME280;75676;49.522;19.724;2024-03-23T05:24:15;93140.78;;;6.90;75.22
85266;BME280;75676;49.522;19.724;2024-03-23T05:26:42;93149.69;;;6.93;73.28
85266;BME280;75676;49.522;19.724;2024-03-23T05:29:07;93148.84;;;6.96;73.04
85266;BME280;75676;49.522;19.724;2024-03-23T05:31:36;93147.91;;;6.90;75.57
85266;BME280;75676;49.522;19.724;2024-03-23T05:34:03;93156.16;;;7.01;74.85
85266;BME280;75676;49.522;19.724;2024-03-23T05:36:29;93142.56;;;7.02;73.94
85266;BME280;75676;49.522;19.724;2024-03-23T05:38:55;93142.22;;;6.91;74.78
85266;BME280;75676;49.522;19.724;2024-03-23T05:41:21;93143.41;;;6.90;73.78
85266;BME280;75676;49.522;19.724;2024-03-23T05:43:48;93148.75;;;7.08;73.79
85266;BME280;75676;49.522;19.724;2024-03-23T05:46:14;93142.63;;;7.11;72.36
85266;BME280;75676;49.522;19.724;2024-03-23T05:48:40;93139.69;;;7.09;71.94
85266;BME280;75676;49.522;19.724;2024-03-23T05:51:05;93139.06;;;7.27;71.04
85266;BME280;75676;49.522;19.724;2024-03-23T05:53:31;93145.41;;;7.39;71.07
85266;BME280;75676;49.522;19.724;2024-03-23T05:56:02;93144.88;;;7.53;70.02
85266;BME280;75676;49.522;19.724;2024-03-23T05:58:32;93139.50;;;7.66;69.44
85266;BME280;75676;49.522;19.724;2024-03-23T06:01:02;93136.31;;;7.71;69.46
85266;BME280;75676;49.522;19.724;2024-03-23T06:03:30;93130.34;;;7.79;69.12
85266;BME280;75676;49.522;19.724;2024-03-23T06:05:56;93132.56;;;7.90;68.72
85266;BME280;75676;49.522;19.724;2024-03-23T06:08:23;93115.34;;;7.98;68.82
85266;BME280;75676;49.522;19.724;2024-03-23T06:10:51;93101.44;;;8.07;68.34
85266;BME280;75676;49.522;19.724;2024-03-23T06:13:18;93091.38;;;8.14;67.67
85266;BME280;75676;49.522;19.724;2024-03-23T06:15:44;93087.84;;;8.26;67.84
85266;BME280;75676;49.522;19.724;2024-03-23T06:18:11;93081.47;;;8.36;66.84
85266;BME280;75676;49.522;19.724;2024-03-23T06:20:37;93095.78;;;8.45;67.11
85266;BME280;75676;49.522;19.724;2024-03-23T06:23:03;93102.06;;;8.56;66.71
85266;BME280;75676;49.522;19.724;2024-03-23T06:25:30;93105.41;;;8.84;65.77
85266;BME280;75676;49.522;19.724;2024-03-23T06:27:56;93109.56;;;9.18;64.89
85266;BME280;75676;49.522;19.724;2024-03-23T06:30:24;93112.03;;;9.63;63.21
85266;BME280;75676;49.522;19.724;2024-03-23T06:32:51;93099.41;;;10.15;62.26
85266;BME280;75676;49.522;19.724;2024-03-23T06:35:20;93097.00;;;10.26;60.92
85266;BME280;75676;49.522;19.724;2024-03-23T06:37:46;93097.59;;;10.30;60.41
85266;BME280;75676;49.522;19.724;2024-03-23T06:40:12;93075.88;;;10.26;60.99
85266;BME280;75676;49.522;19.724;2024-03-23T06:42:37;93066.13;;;10.18;61.11
85266;BME280;75676;49.522;19.724;2024-03-23T06:45:04;93086.44;;;9.55;62.95
85266;BME280;75676;49.522;19.724;2024-03-23T06:47:33;93094.78;;;9.53;63.27
85266;BME280;75676;49.522;19.724;2024-03-23T06:50:03;93097.19;;;9.42;63.66
85266;BME280;75676;49.522;19.724;2024-03-23T06:52:29;93086.66;;;9.33;63.33
85266;BME280;75676;49.522;19.724;2024-03-23T06:54:55;93079.72;;;9.12;65.19
85266;BME280;75676;49.522;19.724;2024-03-23T06:57:21;93101.38;;;9.16;65.63
85266;BME280;75676;49.522;19.724;2024-03-23T06:59:47;93106.78;;;9.21;65.38
85266;BME280;75676;49.522;19.724;2024-03-23T07:02:13;93104.72;;;9.25;65.11
85266;BME280;75676;49.522;19.724;2024-03-23T07:04:39;93097.97;;;9.24;64.62
85266;BME280;75676;49.522;19.724;2024-03-23T07:07:05;93100.28;;;9.32;64.61
85266;BME280;75676;49.522;19.724;2024-03-23T07:09:32;93097.22;;;9.33;63.64
85266;BME280;75676;49.522;19.724;2024-03-23T07:11:57;93094.41;;;9.37;64.40
85266;BME280;75676;49.522;19.724;2024-03-23T07:14:24;93088.94;;;9.49;63.82
85266;BME280;75676;49.522;19.724;2024-03-23T07:16:50;93094.91;;;9.59;63.65
85266;BME280;75676;49.522;19.724;2024-03-23T07:19:17;93080.91;;;9.67;63.10
85266;BME280;75676;49.522;19.724;2024-03-23T07:21:45;93076.06;;;9.75;63.34
85266;BME280;75676;49.522;19.724;2024-03-23T07:24:12;93073.31;;;9.69;63.39
85266;BME280;75676;49.522;19.724;2024-03-23T07:26:37;93076.72;;;9.85;63.46
85266;BME280;75676;49.522;19.724;2024-03-23T07:29:05;93068.75;;;9.94;62.61
85266;BME280;75676;49.522;19.724;2024-03-23T07:31:30;93066.16;;;10.08;62.41
85266;BME280;75676;49.522;19.724;2024-03-23T07:33:57;93069.16;;;10.01;61.96
85266;BME280;75676;49.522;19.724;2024-03-23T07:36:23;93067.78;;;10.06;63.38
85266;BME280;75676;49.522;19.724;2024-03-23T07:38:50;93065.81;;;10.16;62.80
85266;BME280;75676;49.522;19.724;2024-03-23T07:41:18;93072.19;;;10.09;62.18
85266;BME280;75676;49.522;19.724;2024-03-23T07:43:46;93073.72;;;10.16;62.17
85266;BME280;75676;49.522;19.724;2024-03-23T07:46:13;93071.44;;;10.08;62.07
85266;BME280;75676;49.522;19.724;2024-03-23T07:48:39;93073.06;;;10.06;63.26
85266;BME280;75676;49.522;19.724;2024-03-23T07:51:10;93068.53;;;10.06;62.83
85266;BME280;75676;49.522;19.724;2024-03-23T07:53:37;93067.16;;;10.11;63.06
85266;BME280;75676;49.522;19.724;2024-03-23T07:56:07;93052.00;;;9.97;63.21
85266;BME280;75676;49.522;19.724;2024-03-23T07:58:34;93058.13;;;10.03;62.00
85266;BME280;75676;49.522;19.724;2024-03-23T08:01:13;93053.84;;;10.05;62.25
85266;BME280;75676;49.522;19.724;2024-03-23T08:03:46;93055.44;;;10.12;61.57
85266;BME280;75676;49.522;19.724;2024-03-23T08:06:16;93046.47;;;10.33;60.75
85266;BME280;75676;49.522;19.724;2024-03-23T08:08:44;93036.38;;;10.90;59.97
85266;BME280;75676;49.522;19.724;2024-03-23T08:11:11;93033.09;;;11.45;57.92
85266;BME280;75676;49.522;19.724;2024-03-23T08:13:40;93023.31;;;11.31;56.39
85266;BME280;75676;49.522;19.724;2024-03-23T08:16:07;93020.78;;;11.22;56.94
85266;BME280;75676;49.522;19.724;2024-03-23T08:18:34;93023.69;;;11.59;55.54
85266;BME280;75676;49.522;19.724;2024-03-23T08:21:04;93024.59;;;12.37;54.96
85266;BME280;75676;49.522;19.724;2024-03-23T08:23:32;93026.22;;;14.45;48.67
85266;BME280;75676;49.522;19.724;2024-03-23T08:26:09;93026.31;;;14.95;46.89
85266;BME280;75676;49.522;19.724;2024-03-23T08:28:36;93018.19;;;16.01;44.65
85266;BME280;75676;49.522;19.724;2024-03-23T08:31:08;93015.38;;;15.65;44.39
85266;BME280;75676;49.522;19.724;2024-03-23T08:33:35;93011.91;;;16.50;41.65
85266;BME280;75676;49.522;19.724;2024-03-23T08:36:03;93010.63;;;17.28;41.12
85266;BME280;75676;49.522;19.724;2024-03-23T08:38:29;93003.81;;;17.32;40.28
85266;BME280;75676;49.522;19.724;2024-03-23T08:41:03;93007.47;;;17.59;40.20
85266;BME280;75676;49.522;19.724;2024-03-23T08:43:30;93006.06;;;17.52;39.71
85266;BME280;75676;49.522;19.724;2024-03-23T08:46:10;92997.97;;;18.07;38.66
85266;BME280;75676;49.522;19.724;2024-03-23T08:48:38;92996.66;;;17.46;40.09
85266;BME280;75676;49.522;19.724;2024-03-23T08:51:07;93003.09;;;17.02;39.33
85266;BME280;75676;49.522;19.724;2024-03-23T08:53:35;92993.94;;;16.51;41.04
85266;BME280;75676;49.522;19.724;2024-03-23T08:56:01;92999.09;;;15.85;42.82
85266;BME280;75676;49.522;19.724;2024-03-23T08:58:28;92989.28;;;14.75;45.42
85266;BME280;75676;49.522;19.724;2024-03-23T09:00:57;92985.63;;;14.44;46.89
85266;BME280;75676;49.522;19.724;2024-03-23T09:03:26;92984.19;;;15.27;45.56
85266;BME280;75676;49.522;19.724;2024-03-23T09:05:52;92984.91;;;15.38;44.41
85266;BME280;75676;49.522;19.724;2024-03-23T09:08:20;92984.69;;;14.97;46.49
85266;BME280;75676;49.522;19.724;2024-03-23T09:10:47;92977.63;;;15.33;45.64
85266;BME280;75676;49.522;19.724;2024-03-23T09:13:14;92972.25;;;15.61;46.23
85266;BME280;75676;49.522;19.724;2024-03-23T09:15:50;92973.03;;;15.34;46.17
85266;BME280;75676;49.522;19.724;2024-03-23T09:18:17;92964.13;;;14.76;47.98
85266;BME280;75676;49.522;19.724;2024-03-23T09:20:43;92963.16;;;14.90;45.12
85266;BME280;75676;49.522;19.724;2024-03-23T09:23:09;92956.34;;;14.44;46.27
85266;BME280;75676;49.522;19.724;2024-03-23T09:25:38;92954.06;;;14.09;48.72
85266;BME280;75676;49.522;19.724;2024-03-23T09:28:05;92948.94;;;13.89;49.44
85266;BME280;75676;49.522;19.724;2024-03-23T09:30:35;92941.84;;;13.58;48.91
85266;BME280;75676;49.522;19.724;2024-03-23T09:33:10;92941.63;;;13.19;49.99
85266;BME280;75676;49.522;19.724;2024-03-23T09:35:44;92938.13;;;13.44;50.94
85266;BME280;75676;49.522;19.724;2024-03-23T09:38:16;92934.56;;;13.53;49.11
85266;BME280;75676;49.522;19.724;2024-03-23T09:40:43;92937.94;;;13.48;49.05
85266;BME280;75676;49.522;19.724;2024-03-23T09:43:09;92936.31;;;13.67;49.71
85266;BME280;75676;49.522;19.724;2024-03-23T09:45:39;92927.22;;;13.85;49.00
85266;BME280;75676;49.522;19.724;2024-03-23T09:48:07;92928.69;;;13.97;49.04
85266;BME280;75676;49.522;19.724;2024-03-23T09:50:34;92916.97;;;13.61;48.27
85266;BME280;75676;49.522;19.724;2024-03-23T09:53:00;92917.00;;;13.67;48.23
85266;BME280;75676;49.522;19.724;2024-03-23T09:55:26;92917.50;;;13.65;47.98
85266;BME280;75676;49.522;19.724;2024-03-23T09:57:52;92909.25;;;13.58;48.30
85266;BME280;75676;49.522;19.724;2024-03-23T10:00:21;92911.78;;;13.35;47.91
85266;BME280;75676;49.522;19.724;2024-03-23T10:02:47;92898.91;;;13.17;48.53
85266;BME280;75676;49.522;19.724;2024-03-23T10:05:22;92897.81;;;12.98;48.70
85266;BME280;75676;49.522;19.724;2024-03-23T10:07:50;92897.41;;;13.11;49.63
85266;BME280;75676;49.522;19.724;2024-03-23T10:10:16;92894.94;;;13.01;50.22
85266;BME280;75676;49.522;19.724;2024-03-23T10:12:49;92893.22;;;12.93;49.21
85266;BME280;75676;49.522;19.724;2024-03-23T10:15:22;92891.56;;;12.64;49.57
85266;BME280;75676;49.522;19.724;2024-03-23T10:17:49;92893.41;;;12.52;50.13
85266;BME280;75676;49.522;19.724;2024-03-23T10:20:22;92882.25;;;12.43;50.92
85266;BME280;75676;49.522;19.724;2024-03-23T10:22:49;92878.28;;;12.58;50.85
85266;BME280;75676;49.522;19.724;2024-03-23T10:25:17;92875.34;;;12.51;50.70
85266;BME280;75676;49.522;19.724;2024-03-23T10:27:43;92865.47;;;12.51;50.82
85266;BME280;75676;49.522;19.724;2024-03-23T10:30:12;92861.47;;;12.67;50.29
85266;BME280;75676;49.522;19.724;2024-03-23T10:32:38;92859.13;;;12.80;49.92
85266;BME280;75676;49.522;19.724;2024-03-23T10:35:17;92859.47;;;12.99;48.98
85266;BME280;75676;49.522;19.724;2024-03-23T10:37:51;92853.09;;;12.80;48.54
85266;BME280;75676;49.522;19.724;2024-03-23T10:40:18;92852.19;;;12.88;48.68
85266;BME280;75676;49.522;19.724;2024-03-23T10:42:44;92841.88;;;13.01;48.04
85266;BME280;75676;49.522;19.724;2024-03-23T10:45:11;92839.59;;;13.20;48.28
85266;BME280;75676;49.522;19.724;2024-03-23T10:47:37;92837.25;;;13.44;47.80
85266;BME280;75676;49.522;19.724;2024-03-23T10:50:04;92834.16;;;13.57;46.01
85266;BME280;75676;49.522;19.724;2024-03-23T10:52:32;92825.94;;;13.55;46.59
85266;BME280;75676;49.522;19.724;2024-03-23T10:54:59;92836.09;;;13.57;45.90
85266;BME280;75676;49.522;19.724;2024-03-23T10:57:37;92823.28;;;13.55;45.16
85266;BME280;75676;49.522;19.724;2024-03-23T11:00:06;92811.19;;;13.43;45.47
85266;BME280;75676;49.522;19.724;2024-03-23T11:02:33;92808.81;;;13.56;45.94
85266;BME280;75676;49.522;19.724;2024-03-23T11:04:59;92799.91;;;13.70;45.71
85266;BME280;75676;49.522;19.724;2024-03-23T11:07:29;92792.66;;;13.87;45.93
85266;BME280;75676;49.522;19.724;2024-03-23T11:09:56;92779.88;;;13.86;44.48
85266;BME280;75676;49.522;19.724;2024-03-23T11:14:55;92781.31;;;14.04;44.84
85266;BME280;75676;49.522;19.724;2024-03-23T11:17:23;92782.06;;;14.04;45.13
85266;BME280;75676;49.522;19.724;2024-03-23T11:20:03;92771.91;;;13.80;45.92
85266;BME280;75676;49.522;19.724;2024-03-23T11:22:47;92772.66;;;13.98;44.93
85266;BME280;75676;49.522;19.724;2024-03-23T11:25:23;92771.41;;;13.93;45.29
85266;BME280;75676;49.522;19.724;2024-03-23T11:27:51;92754.75;;;14.09;45.28
85266;BME280;75676;49.522;19.724;2024-03-23T11:30:27;92753.31;;;14.25;43.99
85266;BME280;75676;49.522;19.724;2024-03-23T11:32:56;92753.06;;;14.40;44.47
85266;BME280;75676;49.522;19.724;2024-03-23T11:35:25;92742.41;;;14.45;43.27
85266;BME280;75676;49.522;19.724;2024-03-23T11:38:08;92730.34;;;14.39;42.52
85266;BME280;75676;49.522;19.724;2024-03-23T11:40:44;92733.47;;;14.37;41.69
85266;BME280;75676;49.522;19.724;2024-03-23T11:43:13;92721.84;;;14.57;42.24
85266;BME280;75676;49.522;19.724;2024-03-23T11:45:40;92707.53;;;14.65;41.96
85266;BME280;75676;49.522;19.724;2024-03-23T11:48:09;92719.41;;;14.53;41.53
85266;BME280;75676;49.522;19.724;2024-03-23T11:50:38;92702.53;;;14.45;41.26
85266;BME280;75676;49.522;19.724;2024-03-23T11:53:20;92695.50;;;14.42;41.35
85266;BME280;75676;49.522;19.724;2024-03-23T11:58:20;92689.72;;;14.44;41.83
85266;BME280;75676;49.522;19.724;2024-03-23T12:00:59;92684.50;;;14.79;42.46
85266;BME280;75676;49.522;19.724;2024-03-23T12:03:28;92671.63;;;14.94;42.17
85266;BME280;75676;49.522;19.724;2024-03-23T12:06:00;92667.03;;;14.95;40.98
85266;BME280;75676;49.522;19.724;2024-03-23T12:08:34;92677.16;;;14.96;40.81
85266;BME280;75676;49.522;19.724;2024-03-23T12:11:10;92665.78;;;14.96;41.05
85266;BME280;75676;49.522;19.724;2024-03-23T12:13:38;92649.47;;;15.16;41.17
85266;BME280;75676;49.522;19.724;2024-03-23T12:16:20;92642.03;;;15.09;41.41
85266;BME280;75676;49.522;19.724;2024-03-23T12:18:48;92646.88;;;15.05;40.60
85266;BME280;75676;49.522;19.724;2024-03-23T12:21:15;92644.69;;;15.09;40.80
85266;BME280;75676;49.522;19.724;2024-03-23T12:23:42;92624.19;;;15.34;41.30
85266;BME280;75676;49.522;19.724;2024-03-23T12:26:13;92617.84;;;15.42;41.25
85266;BME280;75676;49.522;19.724;2024-03-23T12:28:39;92618.63;;;15.32;40.47
85266;BME280;75676;49.522;19.724;2024-03-23T12:31:05;92619.72;;;15.47;40.68
85266;BME280;75676;49.522;19.724;2024-03-23T12:33:32;92609.72;;;15.59;40.59
85266;BME280;75676;49.522;19.724;2024-03-23T12:36:04;92610.13;;;15.33;39.80
85266;BME280;75676;49.522;19.724;2024-03-23T12:38:30;92575.34;;;15.26;40.99
85266;BME280;75676;49.522;19.724;2024-03-23T12:40:55;92588.78;;;15.39;41.56
85266;BME280;75676;49.522;19.724;2024-03-23T12:43:21;92582.34;;;15.29;42.08
85266;BME280;75676;49.522;19.724;2024-03-23T12:45:48;92580.34;;;15.05;42.32
85266;BME280;75676;49.522;19.724;2024-03-23T12:48:14;92580.34;;;15.05;42.80
85266;BME280;75676;49.522;19.724;2024-03-23T12:50:40;92561.53;;;14.97;42.22
85266;BME280;75676;49.522;19.724;2024-03-23T12:53:06;92549.22;;;15.24;41.70
85266;BME280;75676;49.522;19.724;2024-03-23T12:55:37;92542.25;;;15.45;41.69
85266;BME280;75676;49.522;19.724;2024-03-23T12:58:03;92556.06;;;15.44;41.80
85266;BME280;75676;49.522;19.724;2024-03-23T13:00:29;92551.25;;;15.42;42.07
85266;BME280;75676;49.522;19.724;2024-03-23T13:02:55;92547.69;;;15.64;42.25
85266;BME280;75676;49.522;19.724;2024-03-23T13:05:20;92555.41;;;15.68;41.25
85266;BME280;75676;49.522;19.724;2024-03-23T13:07:46;92544.88;;;16.00;41.98
85266;BME280;75676;49.522;19.724;2024-03-23T13:10:12;92549.38;;;16.10;41.14
85266;BME280;75676;49.522;19.724;2024-03-23T13:12:38;92544.94;;;16.18;41.45
85266;BME280;75676;49.522;19.724;2024-03-23T13:15:05;92534.00;;;16.41;39.69
85266;BME280;75676;49.522;19.724;2024-03-23T13:17:31;92514.00;;;16.28;38.67
85266;BME280;75676;49.522;19.724;2024-03-23T13:19:56;92519.06;;;16.51;40.16
85266;BME280;75676;49.522;19.724;2024-03-23T13:22:22;92522.59;;;16.59;39.37
85266;BME280;75676;49.522;19.724;2024-03-23T13:24:49;92511.69;;;16.57;39.22
85266;BME280;75676;49.522;19.724;2024-03-23T13:27:15;92518.13;;;16.29;38.74
85266;BME280;75676;49.522;19.724;2024-03-23T13:29:41;92504.00;;;16.34;38.28
85266;BME280;75676;49.522;19.724;2024-03-23T13:32:07;92501.81;;;15.71;39.17
85266;BME280;75676;49.522;19.724;2024-03-23T13:34:33;92501.06;;;15.52;40.60
85266;BME280;75676;49.522;19.724;2024-03-23T13:37:00;92492.06;;;15.55;40.05
85266;BME280;75676;49.522;19.724;2024-03-23T13:39:26;92491.38;;;15.55;39.81
85266;BME280;75676;49.522;19.724;2024-03-23T13:41:55;92488.19;;;15.56;39.87
85266;BME280;75676;49.522;19.724;2024-03-23T13:44:21;92481.03;;;15.70;39.23
85266;BME280;75676;49.522;19.724;2024-03-23T13:46:47;92493.22;;;15.84;39.67
85266;BME280;75676;49.522;19.724;2024-03-23T13:51:53;92481.69;;;15.76;38.31
85266;BME280;75676;49.522;19.724;2024-03-23T13:54:20;92479.16;;;15.83;38.98
85266;BME280;75676;49.522;19.724;2024-03-23T13:56:48;92469.97;;;15.60;38.95
85266;BME280;75676;49.522;19.724;2024-03-23T13:59:14;92473.34;;;15.61;39.31
85266;BME280;75676;49.522;19.724;2024-03-23T14:01:39;92471.28;;;15.53;40.04
85266;BME280;75676;49.522;19.724;2024-03-23T14:04:05;92470.91;;;15.63;40.00
85266;BME280;75676;49.522;19.724;2024-03-23T14:06:32;92477.50;;;15.32;40.51
85266;BME280;75676;49.522;19.724;2024-03-23T14:08:58;92469.53;;;15.02;41.28
85266;BME280;75676;49.522;19.724;2024-03-23T14:11:23;92472.28;;;14.91;41.59
85266;BME280;75676;49.522;19.724;2024-03-23T14:13:52;92461.00;;;14.79;42.57
85266;BME280;75676;49.522;19.724;2024-03-23T14:16:18;92471.66;;;14.79;41.72
85266;BME280;75676;49.522;19.724;2024-03-23T14:18:46;92469.19;;;14.87;42.20
85266;BME280;75676;49.522;19.724;2024-03-23T14:21:12;92465.94;;;14.99;42.04
85266;BME280;75676;49.522;19.724;2024-03-23T14:23:38;92463.41;;;15.12;41.24